createdAt,value
2023-07-15T00:01:13.548Z,29.29
2023-07-15T00:03:40.796Z,29.34
2023-07-15T00:06:09.804Z,29.38
2023-07-15T00:08:37.229Z,29.35
2023-07-15T00:11:04.567Z,29.34
2023-07-15T00:13:31.814Z,29.28
2023-07-15T00:15:59.197Z,29.30
2023-07-15T00:18:27.899Z,29.34
2023-07-15T00:20:55.053Z,29.33
2023-07-15T00:23:24.942Z,29.33
2023-07-15T00:25:53.522Z,29.33
2023-07-15T00:28:21.532Z,29.28
2023-07-15T00:30:51.872Z,29.15
2023-07-15T00:33:19.225Z,29.15
2023-07-15T00:35:47.913Z,29.27
2023-07-15T00:38:15.165Z,29.33
2023-07-15T00:40:44.678Z,29.28
2023-07-15T00:43:49.062Z,29.31
2023-07-15T00:46:46.562Z,29.29
2023-07-15T00:49:16.813Z,29.32
2023-07-15T00:51:48.026Z,29.37
2023-07-15T00:54:15.580Z,29.32
2023-07-15T00:56:44.891Z,29.35
2023-07-15T00:59:16.216Z,29.36
2023-07-15T01:01:45.505Z,29.36
2023-07-15T01:04:12.723Z,29.37
2023-07-15T01:06:39.887Z,29.34
2023-07-15T01:09:07.045Z,29.35
2023-07-15T01:11:34.708Z,29.36
2023-07-15T01:14:01.889Z,29.34
2023-07-15T01:16:29.277Z,29.34
2023-07-15T01:18:57.972Z,29.26
2023-07-15T01:21:26.897Z,29.25
2023-07-15T01:23:55.554Z,29.28
2023-07-15T01:26:22.767Z,29.32
2023-07-15T01:28:49.914Z,29.32
2023-07-15T01:31:18.207Z,29.33
2023-07-15T01:33:45.419Z,29.32
2023-07-15T01:36:12.845Z,29.35
2023-07-15T01:38:40.230Z,29.38
2023-07-15T01:41:08.789Z,29.36
2023-07-15T01:43:35.956Z,29.36
2023-07-15T01:46:03.127Z,29.37
2023-07-15T01:48:30.404Z,29.23
2023-07-15T01:50:57.610Z,29.37
2023-07-15T01:53:24.845Z,29.37
2023-07-15T01:55:52.014Z,29.30
2023-07-15T01:58:20.586Z,29.34
2023-07-15T02:00:48.041Z,29.36
2023-07-15T02:03:15.619Z,29.36
2023-07-15T02:05:43.298Z,29.27
2023-07-15T02:08:10.712Z,29.27
2023-07-15T02:10:37.887Z,29.32
2023-07-15T02:13:05.041Z,29.35
2023-07-15T02:15:33.579Z,29.35
2023-07-15T02:18:00.835Z,29.28
2023-07-15T02:20:28.071Z,29.35
2023-07-15T02:22:55.686Z,29.35
2023-07-15T02:25:22.874Z,29.38
2023-07-15T02:27:50.671Z,29.39
2023-07-15T02:30:18.003Z,29.42
2023-07-15T02:32:46.759Z,29.38
2023-07-15T02:35:14.301Z,29.40
2023-07-15T02:37:43.144Z,29.36
2023-07-15T02:40:11.197Z,29.38
2023-07-15T02:42:38.676Z,29.40
2023-07-15T02:45:13.421Z,29.35
2023-07-15T02:47:40.674Z,29.34
2023-07-15T02:50:11.010Z,29.34
2023-07-15T02:52:39.852Z,29.29
2023-07-15T02:55:08.297Z,29.26
2023-07-15T02:57:36.114Z,29.31
2023-07-15T03:00:04.075Z,29.32
2023-07-15T03:02:31.303Z,29.37
2023-07-15T03:04:58.554Z,29.36
2023-07-15T03:07:27.182Z,29.37
2023-07-15T03:09:54.395Z,29.39
2023-07-15T03:12:21.542Z,29.40
2023-07-15T03:14:48.758Z,29.42
2023-07-15T03:17:15.909Z,29.42
2023-07-15T03:19:43.069Z,29.42
2023-07-15T03:22:10.288Z,29.40
2023-07-15T03:24:39.253Z,29.40
2023-07-15T03:27:06.471Z,29.41
2023-07-15T03:29:33.660Z,29.40
2023-07-15T03:32:00.949Z,29.41
2023-07-15T03:34:28.238Z,29.38
2023-07-15T03:36:55.428Z,29.37
2023-07-15T03:39:22.805Z,29.34
2023-07-15T03:41:51.485Z,29.30
2023-07-15T03:44:18.709Z,29.30
2023-07-15T03:46:45.929Z,29.32
2023-07-15T03:49:13.120Z,29.31
2023-07-15T03:51:40.410Z,29.32
2023-07-15T03:54:07.558Z,29.33
2023-07-15T03:56:34.711Z,29.36
2023-07-15T03:59:03.285Z,29.42
2023-07-15T04:01:31.251Z,29.41
2023-07-15T04:03:58.472Z,29.36
2023-07-15T04:06:25.715Z,29.42
2023-07-15T04:08:52.858Z,29.41
2023-07-15T04:11:20.064Z,29.38
2023-07-15T04:13:47.255Z,29.42
2023-07-15T04:16:16.158Z,29.42
2023-07-15T04:18:44.070Z,29.38
2023-07-15T04:21:11.215Z,29.41
2023-07-15T04:23:38.444Z,29.36
2023-07-15T04:26:05.660Z,29.31
2023-07-15T04:28:32.814Z,29.29
2023-07-15T04:31:00.036Z,29.28
2023-07-15T04:33:28.613Z,29.30
2023-07-15T04:35:56.072Z,29.32
2023-07-15T04:38:23.461Z,29.33
2023-07-15T04:40:50.636Z,29.32
2023-07-15T04:43:17.790Z,29.31
2023-07-15T04:45:45.027Z,29.34
2023-07-15T04:48:12.557Z,29.29
2023-07-15T04:50:41.070Z,29.34
2023-07-15T04:53:08.235Z,29.35
2023-07-15T04:55:35.397Z,29.27
2023-07-15T04:58:02.613Z,29.29
2023-07-15T05:00:29.796Z,29.32
2023-07-15T05:02:57.098Z,29.25
2023-07-15T05:05:24.348Z,29.29
2023-07-15T05:07:58.717Z,29.27
2023-07-15T05:10:26.789Z,29.25
2023-07-15T05:12:53.959Z,29.19
2023-07-15T05:15:21.284Z,29.18
2023-07-15T05:17:48.518Z,29.17
2023-07-15T05:20:15.797Z,29.21
2023-07-15T05:22:43.247Z,29.12
2023-07-15T05:25:14.955Z,29.13
2023-07-15T05:27:42.795Z,29.15
2023-07-15T05:30:10.831Z,29.21
2023-07-15T05:32:38.795Z,29.21
2023-07-15T05:35:06.819Z,29.18
2023-07-15T05:37:34.022Z,29.23
2023-07-15T05:40:01.251Z,29.11
2023-07-15T05:42:29.780Z,29.22
2023-07-15T05:44:57.099Z,29.18
2023-07-15T05:47:24.280Z,29.18
2023-07-15T05:49:51.443Z,29.17
2023-07-15T05:52:18.579Z,29.17
2023-07-15T05:54:45.736Z,29.14
2023-07-15T05:57:12.878Z,29.18
2023-07-15T05:59:41.380Z,29.17
2023-07-15T06:02:08.548Z,29.10
2023-07-15T06:04:35.694Z,29.07
2023-07-15T06:07:02.940Z,29.03
2023-07-15T06:09:30.124Z,28.96
2023-07-15T06:11:57.290Z,29.05
2023-07-15T06:14:24.439Z,29.06
2023-07-15T06:16:53.378Z,29.10
2023-07-15T06:19:20.572Z,29.08
2023-07-15T06:21:47.798Z,29.16
2023-07-15T06:24:14.960Z,29.17
2023-07-15T06:26:42.124Z,29.18
2023-07-15T06:29:09.312Z,29.18
2023-07-15T06:31:36.650Z,29.21
2023-07-15T06:34:05.216Z,29.20
2023-07-15T06:36:32.606Z,29.20
2023-07-15T06:38:59.803Z,29.18
2023-07-15T06:41:26.990Z,29.16
2023-07-15T06:43:54.155Z,29.16
2023-07-15T06:46:21.377Z,29.10
2023-07-15T06:48:48.534Z,29.10
2023-07-15T06:51:17.178Z,29.11
2023-07-15T06:53:44.486Z,28.99
2023-07-15T06:56:20.188Z,29.07
2023-07-15T06:58:49.243Z,29.11
2023-07-15T07:01:16.930Z,29.18
2023-07-15T07:03:44.337Z,29.20
2023-07-15T07:06:11.686Z,29.21
2023-07-15T07:08:40.283Z,29.24
2023-07-15T07:11:07.438Z,29.30
2023-07-15T07:13:34.632Z,29.27
2023-07-15T07:16:01.812Z,29.27
2023-07-15T07:18:29.083Z,29.23
2023-07-15T07:20:56.662Z,29.23
2023-07-15T07:23:23.882Z,29.23
2023-07-15T07:25:52.703Z,29.21
2023-07-15T07:28:22.401Z,29.10
2023-07-15T07:30:49.626Z,29.17
2023-07-15T07:33:17.000Z,29.17
2023-07-15T07:35:46.731Z,29.18
2023-07-15T07:38:14.013Z,29.17
2023-07-15T07:40:41.235Z,29.16
2023-07-15T07:43:12.039Z,29.11
2023-07-15T07:45:39.690Z,29.14
2023-07-15T07:48:06.982Z,29.16
2023-07-15T07:50:34.642Z,29.18
2023-07-15T07:53:02.176Z,29.15
2023-07-15T07:55:29.377Z,29.18
2023-07-15T07:57:56.611Z,29.23
2023-07-15T08:00:25.126Z,29.23
2023-07-15T08:02:52.355Z,29.33
2023-07-15T08:05:19.583Z,29.31
2023-07-15T08:07:46.779Z,29.32
2023-07-15T08:10:14.004Z,29.32
2023-07-15T08:12:41.183Z,29.31
2023-07-15T08:15:09.455Z,29.28
2023-07-15T08:17:38.428Z,29.13
2023-07-15T08:20:07.206Z,29.20
2023-07-15T08:22:34.545Z,29.26
2023-07-15T08:25:01.754Z,29.24
2023-07-15T08:27:28.977Z,29.24
2023-07-15T08:29:56.139Z,29.24
2023-07-15T08:32:23.569Z,29.26
2023-07-15T08:35:02.054Z,29.26
2023-07-15T08:37:29.220Z,29.22
2023-07-15T08:39:56.522Z,29.22
2023-07-15T08:42:24.827Z,29.32
2023-07-15T08:44:52.599Z,29.33
2023-07-15T08:47:21.189Z,29.32
2023-07-15T08:49:49.603Z,29.40
2023-07-15T08:52:19.074Z,29.25
2023-07-15T08:54:48.037Z,29.40
2023-07-15T08:57:17.201Z,29.39
2023-07-15T08:59:45.447Z,29.36
2023-07-15T09:02:12.743Z,29.36
2023-07-15T09:04:41.071Z,29.38
2023-07-15T09:07:08.538Z,29.39
2023-07-15T09:09:38.553Z,29.40
2023-07-15T09:12:07.764Z,29.27
2023-07-15T09:14:42.146Z,29.39
2023-07-15T09:17:16.708Z,29.35
2023-07-15T09:19:43.918Z,29.34
2023-07-15T09:22:11.311Z,29.36
2023-07-15T09:24:40.594Z,29.42
2023-07-15T09:27:08.136Z,29.42
2023-07-15T09:29:35.437Z,29.46
2023-07-15T09:32:02.756Z,29.39
2023-07-15T09:34:30.081Z,29.44
2023-07-15T09:36:57.308Z,29.53
2023-07-15T09:39:24.678Z,29.54
2023-07-15T09:42:04.498Z,29.52
2023-07-15T09:44:37.026Z,29.38
2023-07-15T09:47:04.968Z,29.52
2023-07-15T09:49:32.550Z,29.52
2023-07-15T09:52:00.765Z,29.55
2023-07-15T09:54:29.662Z,29.54
2023-07-15T09:57:00.830Z,29.56
2023-07-15T09:59:35.278Z,29.61
2023-07-15T10:02:11.667Z,29.61
2023-07-15T10:04:45.740Z,29.64
2023-07-15T10:07:13.507Z,29.56
2023-07-15T10:09:40.730Z,29.55
2023-07-15T10:12:09.559Z,29.53
2023-07-15T10:14:39.664Z,29.62
2023-07-15T10:17:11.567Z,29.59
2023-07-15T10:19:39.979Z,29.69
2023-07-15T10:22:07.592Z,29.71
2023-07-15T10:24:35.002Z,29.74
2023-07-15T10:27:03.396Z,29.82
2023-07-15T10:29:31.108Z,29.71
2023-07-15T10:32:13.282Z,29.86
2023-07-15T10:34:42.514Z,29.89
2023-07-15T10:37:12.977Z,29.92
2023-07-15T10:39:40.177Z,29.95
2023-07-15T10:42:08.723Z,29.89
2023-07-15T10:44:40.395Z,29.95
2023-07-15T10:47:07.994Z,30.00
2023-07-15T10:49:36.707Z,30.02
2023-07-15T10:52:05.043Z,30.00
2023-07-15T10:54:35.800Z,30.06
2023-07-15T10:57:08.696Z,30.02
2023-07-15T10:59:37.127Z,30.00
2023-07-15T11:02:05.183Z,30.01
2023-07-15T11:04:33.098Z,30.06
2023-07-15T11:07:02.769Z,30.13
2023-07-15T11:09:30.510Z,30.14
2023-07-15T11:11:58.038Z,30.16
2023-07-15T11:14:26.768Z,30.08
2023-07-15T11:16:56.042Z,30.20
2023-07-15T11:19:25.196Z,30.27
2023-07-15T11:21:53.127Z,30.27
2023-07-15T11:24:23.797Z,30.29
2023-07-15T11:26:52.465Z,30.37
2023-07-15T11:29:20.975Z,30.43
2023-07-15T11:31:49.840Z,30.55
2023-07-15T11:34:17.564Z,30.50
2023-07-15T11:36:45.441Z,30.56
2023-07-15T11:39:13.686Z,30.43
2023-07-15T11:41:42.879Z,30.62
2023-07-15T11:44:11.594Z,30.62
2023-07-15T11:46:39.351Z,30.56
2023-07-15T11:49:07.477Z,30.70
2023-07-15T11:51:36.173Z,30.80
2023-07-15T11:54:08.241Z,30.87
2023-07-15T11:56:37.312Z,30.97
2023-07-15T11:59:08.574Z,31.15
2023-07-15T12:01:38.055Z,31.18
2023-07-15T12:04:12.708Z,31.21
2023-07-15T12:06:47.247Z,31.24
2023-07-15T12:09:14.673Z,31.33
2023-07-15T12:11:42.542Z,31.36
2023-07-15T12:14:11.454Z,31.43
2023-07-15T12:16:40.065Z,31.38
2023-07-15T12:19:12.568Z,31.53
2023-07-15T12:21:40.707Z,31.59
2023-07-15T12:24:08.739Z,31.64
2023-07-15T12:26:36.396Z,31.67
2023-07-15T12:29:03.644Z,31.74
2023-07-15T12:31:32.148Z,31.79
2023-07-15T12:33:59.322Z,31.73
2023-07-15T12:36:26.662Z,31.69
2023-07-15T12:38:53.816Z,31.66
2023-07-15T12:41:21.093Z,31.70
2023-07-15T12:43:48.284Z,31.80
2023-07-15T12:46:15.681Z,31.82
2023-07-15T12:48:44.476Z,31.87
2023-07-15T12:51:11.835Z,31.81
2023-07-15T12:53:39.116Z,31.90
2023-07-15T12:56:06.390Z,31.99
2023-07-15T12:58:33.578Z,32.02
2023-07-15T13:01:00.751Z,32.10
2023-07-15T13:03:28.141Z,32.10
2023-07-15T13:05:56.931Z,32.11
2023-07-15T13:08:24.093Z,32.13
2023-07-15T13:10:55.690Z,32.15
2023-07-15T13:13:23.697Z,32.27
2023-07-15T13:15:51.189Z,32.37
2023-07-15T13:18:18.402Z,32.36
2023-07-15T13:20:45.643Z,32.33
2023-07-15T13:23:14.297Z,32.44
2023-07-15T13:25:41.517Z,32.29
2023-07-15T13:28:08.712Z,32.32
2023-07-15T13:30:35.954Z,32.37
2023-07-15T13:33:03.294Z,32.32
2023-07-15T13:35:30.540Z,32.42
2023-07-15T13:37:57.903Z,32.47
2023-07-15T13:40:27.480Z,32.50
2023-07-15T13:42:54.687Z,32.51
2023-07-15T13:45:21.849Z,32.59
2023-07-15T13:47:49.564Z,32.66
2023-07-15T13:50:16.817Z,32.73
2023-07-15T13:52:43.994Z,32.74
2023-07-15T13:55:11.142Z,32.73
2023-07-15T13:57:39.871Z,32.82
2023-07-15T14:00:10.867Z,32.76
2023-07-15T14:02:40.462Z,32.80
2023-07-15T14:05:08.461Z,32.91
2023-07-15T14:07:35.757Z,32.79
2023-07-15T14:10:03.529Z,32.74
2023-07-15T14:12:30.682Z,32.69
2023-07-15T14:14:59.279Z,32.64
2023-07-15T14:17:26.489Z,32.76
2023-07-15T14:19:56.200Z,32.71
2023-07-15T14:22:34.235Z,32.73
2023-07-15T14:25:10.707Z,32.73
2023-07-15T14:27:37.871Z,32.81
2023-07-15T14:30:07.723Z,32.86
2023-07-15T14:32:35.077Z,32.96
2023-07-15T14:35:02.275Z,32.97
2023-07-15T14:37:29.433Z,32.87
2023-07-15T14:39:56.665Z,33.08
2023-07-15T14:42:23.828Z,33.09
2023-07-15T14:44:50.965Z,33.09
2023-07-15T14:47:19.693Z,33.12
2023-07-15T14:49:46.826Z,33.13
2023-07-15T14:52:14.002Z,33.19
2023-07-15T14:54:41.202Z,33.23
2023-07-15T14:57:08.379Z,33.14
2023-07-15T14:59:35.894Z,33.19
2023-07-15T15:02:03.416Z,33.09
2023-07-15T15:04:31.947Z,33.02
2023-07-15T15:06:59.086Z,33.03
2023-07-15T15:09:26.332Z,33.07
2023-07-15T15:11:53.485Z,33.14
2023-07-15T15:14:21.794Z,33.11
2023-07-15T15:16:48.994Z,33.08
2023-07-15T15:19:16.209Z,33.14
2023-07-15T15:21:44.698Z,33.11
2023-07-15T15:24:12.753Z,33.19
2023-07-15T15:26:39.916Z,33.31
2023-07-15T15:29:07.128Z,33.17
2023-07-15T15:31:34.310Z,33.34
2023-07-15T15:34:01.483Z,33.27
2023-07-15T15:36:28.634Z,33.36
2023-07-15T15:38:57.209Z,33.30
2023-07-15T15:41:24.363Z,33.40
2023-07-15T15:43:51.487Z,33.37
2023-07-15T15:46:18.836Z,33.37
2023-07-15T15:48:46.047Z,33.44
2023-07-15T15:51:13.281Z,33.48
2023-07-15T15:53:40.754Z,33.42
2023-07-15T15:56:09.309Z,33.25
2023-07-15T15:58:36.584Z,33.10
2023-07-15T16:01:03.757Z,33.28
2023-07-15T16:03:31.050Z,33.18
2023-07-15T16:05:58.282Z,33.23
2023-07-15T16:08:25.620Z,33.23
2023-07-15T16:10:52.792Z,33.28
2023-07-15T16:13:21.302Z,33.28
2023-07-15T16:15:48.504Z,33.41
2023-07-15T16:18:15.652Z,33.43
2023-07-15T16:20:42.806Z,33.15
2023-07-15T16:23:10.158Z,33.33
2023-07-15T16:25:37.574Z,33.28
2023-07-15T16:28:06.036Z,33.23
2023-07-15T16:30:35.372Z,33.09
2023-07-15T16:33:03.703Z,33.08
2023-07-15T16:35:31.085Z,33.08
2023-07-15T16:37:58.290Z,33.08
2023-07-15T16:40:25.546Z,32.94
2023-07-15T16:42:52.691Z,32.93
2023-07-15T16:45:20.017Z,32.92
2023-07-15T16:47:48.631Z,32.78
2023-07-15T16:50:15.878Z,32.91
2023-07-15T16:52:43.287Z,32.97
2023-07-15T16:55:10.666Z,32.88
2023-07-15T16:57:37.895Z,32.67
2023-07-15T17:00:06.240Z,32.71
2023-07-15T17:02:33.499Z,32.62
2023-07-15T17:05:02.820Z,32.89
2023-07-15T17:07:30.812Z,32.74
2023-07-15T17:09:58.782Z,32.74
2023-07-15T17:12:25.992Z,32.83
2023-07-15T17:14:53.270Z,32.80
2023-07-15T17:17:20.429Z,32.73
2023-07-15T17:19:47.582Z,32.70
2023-07-15T17:22:16.245Z,32.74
2023-07-15T17:24:43.451Z,32.61
2023-07-15T17:27:10.651Z,32.55
2023-07-15T17:29:37.930Z,32.54
2023-07-15T17:32:05.373Z,32.45
2023-07-15T17:34:32.683Z,32.36
2023-07-15T17:36:59.852Z,32.36
2023-07-15T17:39:28.375Z,32.40
2023-07-15T17:41:55.528Z,32.42
2023-07-15T17:44:22.702Z,32.34
2023-07-15T17:46:49.850Z,32.40
2023-07-15T17:49:17.012Z,32.43
2023-07-15T17:51:44.165Z,32.34
2023-07-15T17:54:11.304Z,32.35
2023-07-15T17:56:39.833Z,32.35
2023-07-15T17:59:07.191Z,32.42
2023-07-15T18:01:34.383Z,32.42
2023-07-15T18:04:01.592Z,32.40
2023-07-15T18:06:28.763Z,32.29
2023-07-15T18:08:55.920Z,32.27
2023-07-15T18:11:23.162Z,32.16
2023-07-15T18:13:51.710Z,32.16
2023-07-15T18:16:18.890Z,32.16
2023-07-15T18:18:46.074Z,32.14
2023-07-15T18:21:13.613Z,32.34
2023-07-15T18:23:41.010Z,32.52
2023-07-15T18:26:08.228Z,32.80
2023-07-15T18:28:35.485Z,33.03
2023-07-15T18:31:04.265Z,33.10
2023-07-15T18:33:31.516Z,33.13
2023-07-15T18:35:58.732Z,33.07
2023-07-15T18:38:25.927Z,33.13
2023-07-15T18:40:53.085Z,32.90
2023-07-15T18:43:20.307Z,32.93
2023-07-15T18:45:47.487Z,34.79
2023-07-15T18:48:16.004Z,35.33
2023-07-15T18:50:43.225Z,35.57
2023-07-15T18:53:10.429Z,35.69
2023-07-15T18:55:37.630Z,35.71
2023-07-15T18:58:04.971Z,35.64
2023-07-15T19:00:32.253Z,35.57
2023-07-15T19:02:59.584Z,35.50
2023-07-15T19:05:28.240Z,35.36
2023-07-15T19:07:55.414Z,35.03
2023-07-15T19:10:22.623Z,34.45
2023-07-15T19:12:49.819Z,34.05
2023-07-15T19:15:17.148Z,33.83
2023-07-15T19:17:46.405Z,33.61
2023-07-15T19:20:14.963Z,33.38
2023-07-15T19:22:43.582Z,33.22
2023-07-15T19:25:10.777Z,33.16
2023-07-15T19:27:38.240Z,32.96
2023-07-15T19:30:06.690Z,32.89
2023-07-15T19:32:33.890Z,32.88
2023-07-15T19:35:01.059Z,32.80
2023-07-15T19:37:28.403Z,32.78
2023-07-15T19:39:56.943Z,32.64
2023-07-15T19:42:24.145Z,32.58
2023-07-15T19:44:51.303Z,32.64
2023-07-15T19:47:18.444Z,32.68
2023-07-15T19:49:45.616Z,32.61
2023-07-15T19:52:12.805Z,32.50
2023-07-15T19:54:40.038Z,32.44
2023-07-15T19:57:08.559Z,32.43
2023-07-15T19:59:35.713Z,32.40
2023-07-15T20:02:03.101Z,32.29
2023-07-15T20:04:30.368Z,32.28
2023-07-15T20:06:57.714Z,32.24
2023-07-15T20:09:25.030Z,32.20
2023-07-15T20:11:52.267Z,32.20
2023-07-15T20:14:20.790Z,32.10
2023-07-15T20:16:48.075Z,31.97
2023-07-15T20:19:15.343Z,32.07
2023-07-15T20:21:42.718Z,32.05
2023-07-15T20:24:09.917Z,32.04
2023-07-15T20:26:38.325Z,31.98
2023-07-15T20:29:05.502Z,31.97
2023-07-15T20:31:34.051Z,31.91
2023-07-15T20:34:01.544Z,31.96
2023-07-15T20:36:28.704Z,31.94
2023-07-15T20:38:56.072Z,31.92
2023-07-15T20:41:23.246Z,31.85
2023-07-15T20:43:50.471Z,31.82
2023-07-15T20:46:17.931Z,31.79
2023-07-15T20:48:46.679Z,31.85
2023-07-15T20:51:13.968Z,31.86
2023-07-15T20:53:41.128Z,31.88
2023-07-15T20:56:08.428Z,31.73
2023-07-15T20:58:35.624Z,31.49
2023-07-15T21:01:02.786Z,31.48
2023-07-15T21:03:29.949Z,31.53
2023-07-15T21:05:59.932Z,31.69
2023-07-15T21:08:27.867Z,31.72
2023-07-15T21:10:55.876Z,31.79
2023-07-15T21:13:23.752Z,31.88
2023-07-15T21:15:51.066Z,31.78
2023-07-15T21:18:20.048Z,31.85
2023-07-15T21:20:47.466Z,31.89
2023-07-15T21:23:16.206Z,31.89
2023-07-15T21:25:43.440Z,31.89
2023-07-15T21:28:11.031Z,31.93
2023-07-15T21:30:38.217Z,31.91
2023-07-15T21:33:05.730Z,31.90
2023-07-15T21:35:32.917Z,31.90
2023-07-15T21:38:00.073Z,31.82
2023-07-15T21:40:31.032Z,31.79
2023-07-15T21:42:59.769Z,31.82
2023-07-15T21:45:27.026Z,31.68
2023-07-15T21:47:54.221Z,31.84
2023-07-15T21:50:21.367Z,31.84
2023-07-15T21:52:48.563Z,31.84
2023-07-15T21:55:15.751Z,31.83
2023-07-15T21:57:44.242Z,31.86
2023-07-15T22:00:13.318Z,31.90
2023-07-15T22:02:40.821Z,31.89
2023-07-15T22:05:08.156Z,31.92
2023-07-15T22:07:35.680Z,31.90
2023-07-15T22:10:02.981Z,31.87
2023-07-15T22:12:30.212Z,31.87
2023-07-15T22:14:59.289Z,31.91
2023-07-15T22:17:26.763Z,31.89
2023-07-15T22:19:54.307Z,31.86
2023-07-15T22:22:21.529Z,31.87
2023-07-15T22:24:49.057Z,31.84
2023-07-15T22:27:16.351Z,31.82
2023-07-15T22:29:43.517Z,31.79
2023-07-15T22:32:12.054Z,31.76
2023-07-15T22:34:39.282Z,31.78
2023-07-15T22:37:06.883Z,31.81
2023-07-15T22:39:34.080Z,31.81
2023-07-15T22:42:01.247Z,31.87
2023-07-15T22:44:28.407Z,31.85
2023-07-15T22:46:55.793Z,31.88
2023-07-15T22:49:24.379Z,31.84
2023-07-15T22:51:51.501Z,31.86
2023-07-15T22:54:18.717Z,31.83
2023-07-15T22:56:45.913Z,31.86
2023-07-15T22:59:13.042Z,31.82
2023-07-15T23:01:40.323Z,31.82
2023-07-15T23:04:07.520Z,31.83
2023-07-15T23:06:36.033Z,31.80
2023-07-15T23:09:06.094Z,31.81
2023-07-15T23:11:34.465Z,31.83
2023-07-15T23:14:01.612Z,31.78
2023-07-15T23:16:28.973Z,31.74
2023-07-15T23:18:56.174Z,31.74
2023-07-15T23:21:23.381Z,31.76
2023-07-15T23:23:51.964Z,31.76
2023-07-15T23:26:19.216Z,31.77
2023-07-15T23:28:46.583Z,31.75
2023-07-15T23:31:13.829Z,31.78
2023-07-15T23:33:40.967Z,31.82
2023-07-15T23:36:08.111Z,31.81
2023-07-15T23:38:35.274Z,31.85
2023-07-15T23:41:04.191Z,31.86
2023-07-15T23:43:31.669Z,31.83
2023-07-15T23:45:58.817Z,31.83
2023-07-15T23:48:25.968Z,31.83
2023-07-15T23:50:53.117Z,31.78
2023-07-15T23:53:20.487Z,31.80
2023-07-15T23:55:47.615Z,31.78
2023-07-15T23:58:16.141Z,31.77
